Time;durP1;ratioP1;P1;durP2;ratioP2;P2;SDS_P1;SDS_P2;PMS_P1;PMS_P2;Temp;Humidity;BMP_temperature;BMP_pressure;BME280_temperature;BME280_humidity;BME280_pressure;Samples;Min_cycle;Max_cycle;Signal;HPM_P1;HPM_P2
2023/10/09 00:01:26;;;;;;;8.35;4.30;;;;;;;;;;5086176;28;20782;-79
2023/10/09 00:03:53;;;;;;;7.50;4.35;;;;;;;;;;5084856;28;20403;-79
2023/10/09 00:06:37;;;;;;;6.03;4.32;;;;;;;;;;5085849;28;20380;-79
2023/10/09 00:11:54;;;;;;;7.83;4.40;;;;;;;;;;5085910;28;20395;-78
2023/10/09 00:14:20;;;;;;;5.80;4.25;;;;;;;;;;5082868;28;20399;-79
2023/10/09 00:16:48;;;;;;;7.63;4.50;;;;;;;;;;5084584;28;20412;-79
2023/10/09 00:19:19;;;;;;;6.65;4.40;;;;;;;;;;5084731;28;20387;-79
2023/10/09 00:21:46;;;;;;;8.47;4.43;;;;;;;;;;5084173;28;20383;-79
2023/10/09 00:24:24;;;;;;;8.57;4.20;;;;;;;;;;5084467;28;20440;-79
2023/10/09 00:27:08;;;;;;;11.18;4.63;;;;;;;;;;5085293;28;20380;-78
2023/10/09 00:29:37;;;;;;;8.40;4.40;;;;;;;;;;5086512;28;20475;-79
2023/10/09 00:34:50;;;;;;;7.65;4.22;;;;;;;;;;5086234;28;20898;-79
2023/10/09 00:37:16;;;;;;;7.78;4.18;;;;;;;;;;5085117;28;20384;-79
2023/10/09 00:39:48;;;;;;;6.25;4.25;;;;;;;;;;5078503;28;20417;-79
2023/10/09 00:42:25;;;;;;;6.38;4.05;;;;;;;;;;5066194;28;20408;-80
2023/10/09 00:44:51;;;;;;;7.82;3.90;;;;;;;;;;5084065;28;20391;-80
2023/10/09 00:47:22;;;;;;;9.48;4.13;;;;;;;;;;5084052;28;20421;-79
2023/10/09 00:49:50;;;;;;;7.63;3.67;;;;;;;;;;5083334;28;20824;-78
2023/10/09 00:52:31;;;;;;;6.30;4.00;;;;;;;;;;5085481;28;22183;-78
2023/10/09 00:55:01;;;;;;;7.15;4.13;;;;;;;;;;5085616;28;20406;-78
2023/10/09 00:57:27;;;;;;;6.15;4.00;;;;;;;;;;5086412;28;20467;-78
2023/10/09 00:59:59;;;;;;;9.15;4.15;;;;;;;;;;5084398;28;20383;-78
2023/10/09 01:02:35;;;;;;;8.73;3.92;;;;;;;;;;5085049;28;20479;-78
2023/10/09 01:05:11;;;;;;;7.45;3.90;;;;;;;;;;5084132;28;20841;-79
2023/10/09 01:07:40;;;;;;;8.88;3.90;;;;;;;;;;5083392;28;20442;-79
2023/10/09 01:10:09;;;;;;;7.60;3.95;;;;;;;;;;5083306;28;20438;-79
2023/10/09 01:12:42;;;;;;;7.50;4.10;;;;;;;;;;5082516;28;20502;-79
2023/10/09 01:15:08;;;;;;;7.50;3.85;;;;;;;;;;5082907;28;20395;-79
2023/10/09 01:17:45;;;;;;;7.70;4.50;;;;;;;;;;5083394;28;20714;-79
2023/10/09 01:20:16;;;;;;;7.03;3.92;;;;;;;;;;5082814;28;20443;-79
2023/10/09 01:22:43;;;;;;;7.10;4.05;;;;;;;;;;5083689;28;20383;-79
2023/10/09 01:25:10;;;;;;;6.78;3.80;;;;;;;;;;5081861;28;20387;-80
2023/10/09 01:27:40;;;;;;;5.23;3.80;;;;;;;;;;5081902;28;20383;-79
2023/10/09 01:30:06;;;;;;;7.22;4.20;;;;;;;;;;5082749;28;20409;-79
2023/10/09 01:32:34;;;;;;;9.77;3.87;;;;;;;;;;5082519;28;20414;-79
2023/10/09 01:35:00;;;;;;;7.75;3.97;;;;;;;;;;5082340;28;20382;-79
2023/10/09 01:37:28;;;;;;;6.22;3.80;;;;;;;;;;5081953;28;20833;-79
2023/10/09 01:39:58;;;;;;;6.57;3.70;;;;;;;;;;5083764;28;20405;-79
2023/10/09 01:44:59;;;;;;;7.60;4.30;;;;;;;;;;5082924;28;20953;-79
2023/10/09 01:47:31;;;;;;;7.25;4.43;;;;;;;;;;5081687;28;20463;-80
2023/10/09 01:49:57;;;;;;;7.47;4.03;;;;;;;;;;5082253;28;20415;-79
2023/10/09 01:52:23;;;;;;;7.40;4.05;;;;;;;;;;5081954;28;20407;-79
2023/10/09 01:54:51;;;;;;;6.32;3.95;;;;;;;;;;5082854;28;20418;-79
2023/10/09 01:57:25;;;;;;;5.25;3.15;;;;;;;;;;5064729;28;20411;-79
2023/10/09 01:59:53;;;;;;;7.30;4.15;;;;;;;;;;5079475;28;20380;-80
2023/10/09 02:02:33;;;;;;;8.48;4.15;;;;;;;;;;5080794;28;20439;-79
2023/10/09 02:05:09;;;;;;;5.85;4.03;;;;;;;;;;5071956;28;20376;-80
2023/10/09 02:07:44;;;;;;;5.95;3.78;;;;;;;;;;5081529;28;20443;-79
2023/10/09 02:13:11;;;;;;;6.70;4.30;;;;;;;;;;5080176;28;20698;-80
2023/10/09 02:18:18;;;;;;;8.02;4.05;;;;;;;;;;5080954;28;20845;-80
2023/10/09 02:20:45;;;;;;;8.18;3.75;;;;;;;;;;5072371;28;20370;-80
2023/10/09 02:23:13;;;;;;;8.20;4.22;;;;;;;;;;5076785;28;20854;-80
2023/10/09 02:25:43;;;;;;;7.60;3.83;;;;;;;;;;5082402;28;20379;-80
2023/10/09 02:28:17;;;;;;;8.23;4.30;;;;;;;;;;5081196;28;20387;-78
2023/10/09 02:30:47;;;;;;;8.63;4.13;;;;;;;;;;5081187;28;20445;-78
2023/10/09 02:33:14;;;;;;;6.73;4.20;;;;;;;;;;5080857;28;20841;-78
2023/10/09 02:35:42;;;;;;;8.68;4.20;;;;;;;;;;5082421;28;20432;-78
2023/10/09 02:38:14;;;;;;;6.33;3.57;;;;;;;;;;5081200;28;20511;-79
2023/10/09 02:41:00;;;;;;;8.17;4.10;;;;;;;;;;5080983;28;20469;-78
2023/10/09 02:43:26;;;;;;;6.78;4.10;;;;;;;;;;5081016;28;20414;-79
2023/10/09 02:45:53;;;;;;;8.02;4.15;;;;;;;;;;5080527;28;20768;-79
2023/10/09 02:48:28;;;;;;;6.25;3.90;;;;;;;;;;5078897;28;20440;-79
2023/10/09 02:50:54;;;;;;;8.23;4.10;;;;;;;;;;5066842;28;20478;-79
2023/10/09 02:53:29;;;;;;;7.45;4.47;;;;;;;;;;5079280;28;20845;-79
2023/10/09 02:56:12;;;;;;;6.65;3.90;;;;;;;;;;5077671;28;20382;-79
2023/10/09 02:58:39;;;;;;;8.63;4.00;;;;;;;;;;5079600;28;20380;-79
2023/10/09 03:01:09;;;;;;;5.53;3.53;;;;;;;;;;5082884;28;20388;-78
2023/10/09 03:03:35;;;;;;;8.40;4.05;;;;;;;;;;5083743;28;20368;-78
2023/10/09 03:06:03;;;;;;;8.73;3.90;;;;;;;;;;5083038;28;20384;-78
2023/10/09 03:08:29;;;;;;;5.47;4.15;;;;;;;;;;5084434;28;20372;-78
2023/10/09 03:10:59;;;;;;;8.10;4.00;;;;;;;;;;5083834;28;20410;-78
2023/10/09 03:13:25;;;;;;;6.45;4.07;;;;;;;;;;5083617;28;20380;-78
2023/10/09 03:15:51;;;;;;;7.18;3.90;;;;;;;;;;5083662;28;20397;-78
2023/10/09 03:18:18;;;;;;;4.97;3.38;;;;;;;;;;5081394;28;20393;-80
2023/10/09 03:20:46;;;;;;;7.80;4.20;;;;;;;;;;5078659;28;20368;-80
2023/10/09 03:23:14;;;;;;;6.78;3.67;;;;;;;;;;5078786;28;20398;-79
2023/10/09 03:25:40;;;;;;;4.85;3.70;;;;;;;;;;5079168;28;20384;-79
2023/10/09 03:28:06;;;;;;;7.43;4.00;;;;;;;;;;5079569;28;20776;-79
2023/10/09 03:30:34;;;;;;;6.75;3.97;;;;;;;;;;5079075;28;20411;-79
2023/10/09 03:33:02;;;;;;;8.30;4.10;;;;;;;;;;5078750;28;20414;-79
2023/10/09 03:35:31;;;;;;;8.85;4.35;;;;;;;;;;5079304;28;20398;-79
2023/10/09 03:38:09;;;;;;;7.25;3.90;;;;;;;;;;5079214;28;20384;-79
2023/10/09 03:40:38;;;;;;;5.70;3.97;;;;;;;;;;5078335;28;20447;-79
2023/10/09 03:43:05;;;;;;;7.57;3.85;;;;;;;;;;5078126;28;20383;-79
2023/10/09 03:45:35;;;;;;;9.70;4.28;;;;;;;;;;5078916;28;20400;-79
2023/10/09 03:48:35;;;;;;;6.97;4.00;;;;;;;;;;5078488;28;20391;-79
2023/10/09 03:51:08;;;;;;;9.05;4.07;;;;;;;;;;5073948;28;20853;-78
2023/10/09 03:53:41;;;;;;;9.13;4.22;;;;;;;;;;5079151;28;20737;-78
2023/10/09 03:56:15;;;;;;;7.28;3.92;;;;;;;;;;5078478;28;20766;-78
2023/10/09 03:58:45;;;;;;;6.45;3.92;;;;;;;;;;5078169;28;20383;-78
2023/10/09 04:01:24;;;;;;;6.32;3.60;;;;;;;;;;5078468;28;20460;-78
2023/10/09 04:03:55;;;;;;;6.73;3.60;;;;;;;;;;5084317;28;20388;-78
2023/10/09 04:06:28;;;;;;;6.68;3.42;;;;;;;;;;5084012;28;20776;-78
2023/10/09 04:08:55;;;;;;;6.55;4.07;;;;;;;;;;5081365;28;20483;-79
2023/10/09 04:11:23;;;;;;;10.15;3.78;;;;;;;;;;5083263;28;20395;-79
2023/10/09 04:13:49;;;;;;;7.25;4.07;;;;;;;;;;5082922;28;20383;-79
2023/10/09 04:16:34;;;;;;;7.15;4.00;;;;;;;;;;5081513;28;20495;-79
2023/10/09 04:19:11;;;;;;;7.10;3.70;;;;;;;;;;5083347;28;20401;-79
2023/10/09 04:21:37;;;;;;;6.75;4.28;;;;;;;;;;5083057;28;20517;-79
2023/10/09 04:26:37;;;;;;;6.15;3.95;;;;;;;;;;5083849;28;20380;-79
2023/10/09 04:29:03;;;;;;;13.07;8.38;;;;;;;;;;5083918;28;20943;-79
2023/10/09 04:31:34;;;;;;;10.68;5.20;;;;;;;;;;5084279;28;20414;-80
2023/10/09 04:39:47;;;;;;;9.40;5.63;;;;;;;;;;5074448;28;20413;-79
2023/10/09 04:42:26;;;;;;;8.00;4.95;;;;;;;;;;5084683;28;20380;-79
2023/10/09 04:47:49;;;;;;;8.05;4.43;;;;;;;;;;5070579;28;20375;-79
2023/10/09 05:00:35;;;;;;;7.40;4.40;;;;;;;;;;5083515;28;20730;-79
2023/10/09 05:05:48;;;;;;;6.67;3.70;;;;;;;;;;5083808;28;20379;-79
2023/10/09 05:16:28;;;;;;;5.88;3.60;;;;;;;;;;5080779;28;20379;-78
2023/10/09 05:18:59;;;;;;;7.65;4.07;;;;;;;;;;5072492;28;20383;-78
2023/10/09 05:29:34;;;;;;;7.88;3.83;;;;;;;;;;5083785;28;20427;-80
2023/10/09 05:37:25;;;;;;;5.85;3.80;;;;;;;;;;5072355;28;20872;-80
2023/10/09 05:42:42;;;;;;;6.72;4.10;;;;;;;;;;5083959;28;20380;-80
2023/10/09 05:47:54;;;;;;;5.28;4.18;;;;;;;;;;5084008;28;20721;-79
2023/10/09 06:03:48;;;;;;;7.85;4.60;;;;;;;;;;5082495;28;20378;-78
2023/10/09 06:06:32;;;;;;;8.95;4.20;;;;;;;;;;5077902;28;20476;-78
2023/10/09 06:11:54;;;;;;;6.85;4.30;;;;;;;;;;5075630;28;20392;-78
2023/10/09 06:30:23;;;;;;;6.97;4.85;;;;;;;;;;5082771;28;20549;-79
2023/10/09 06:33:04;;;;;;;8.02;4.55;;;;;;;;;;5083030;28;20379;-81
2023/10/09 06:35:35;;;;;;;9.48;4.90;;;;;;;;;;5074608;28;20405;-78
2023/10/09 06:43:09;;;;;;;6.93;4.25;;;;;;;;;;5086957;28;20379;-78
2023/10/09 06:45:45;;;;;;;11.77;5.20;;;;;;;;;;5086383;28;20383;-78
2023/10/09 06:48:55;;;;;;;9.20;5.47;;;;;;;;;;5087894;28;20375;-78
2023/10/09 06:57:12;;;;;;;9.23;5.15;;;;;;;;;;5088352;28;20384;-78
2023/10/09 06:59:21;;;;;;;10.32;5.22;;;;;;;;;;5087088;28;20392;-79
2023/10/09 07:02:18;;;;;;;10.67;5.87;;;;;;;;;;5087619;28;20760;-78
2023/10/09 07:07:07;;;;;;;11.40;5.63;;;;;;;;;;5081276;28;20388;-78
2023/10/09 07:09:42;;;;;;;12.07;6.10;;;;;;;;;;5090290;28;20407;-78
2023/10/09 07:12:25;;;;;;;8.20;5.53;;;;;;;;;;5087068;28;20391;-79
2023/10/09 07:17:44;;;;;;;11.23;6.87;;;;;;;;;;5084753;28;20372;-79
2023/10/09 07:20:13;;;;;;;12.63;6.80;;;;;;;;;;5072002;28;20447;-78
2023/10/09 07:22:52;;;;;;;10.20;6.45;;;;;;;;;;5082714;28;20418;-80
2023/10/09 07:25:40;;;;;;;8.90;5.95;;;;;;;;;;5085811;28;20412;-78
2023/10/09 07:28:18;;;;;;;14.27;6.63;;;;;;;;;;5085631;28;20410;-78
2023/10/09 07:30:47;;;;;;;12.57;6.55;;;;;;;;;;5086856;28;20415;-79
2023/10/09 07:35:57;;;;;;;21.63;7.25;;;;;;;;;;5082920;28;20387;-80
2023/10/09 07:38:29;;;;;;;17.23;7.25;;;;;;;;;;5078221;28;20437;-78
2023/10/09 07:40:56;;;;;;;17.58;6.63;;;;;;;;;;5085834;28;20382;-79
2023/10/09 07:48:55;;;;;;;11.82;5.53;;;;;;;;;;5083166;28;20954;-78
2023/10/09 07:51:31;;;;;;;11.43;5.78;;;;;;;;;;5075316;28;20476;-79
2023/10/09 07:54:06;;;;;;;12.82;5.75;;;;;;;;;;5067885;28;20385;-79
2023/10/09 07:56:45;;;;;;;11.77;5.65;;;;;;;;;;5081527;28;20376;-79
2023/10/09 07:59:12;;;;;;;18.88;5.82;;;;;;;;;;5082802;28;20433;-79
2023/10/09 08:02:02;;;;;;;13.00;5.40;;;;;;;;;;5083550;28;20474;-80
2023/10/09 08:04:37;;;;;;;10.77;5.43;;;;;;;;;;5083883;28;20388;-80
2023/10/09 08:07:08;;;;;;;11.10;5.45;;;;;;;;;;5082086;28;20411;-80
2023/10/09 08:09:47;;;;;;;13.90;5.25;;;;;;;;;;5083262;28;20888;-81
2023/10/09 08:14:48;;;;;;;12.68;4.80;;;;;;;;;;5063435;28;20379;-81
2023/10/09 08:17:20;;;;;;;31.27;6.80;;;;;;;;;;5071910;28;20740;-80
2023/10/09 08:19:54;;;;;;;13.18;5.00;;;;;;;;;;5078133;28;20471;-82
2023/10/09 08:24:59;;;;;;;13.85;4.72;;;;;;;;;;5080995;28;20943;-80
2023/10/09 08:33:00;;;;;;;10.52;4.70;;;;;;;;;;5031660;28;20390;-81
2023/10/09 08:35:33;;;;;;;9.98;5.32;;;;;;;;;;5075201;28;20395;-80
2023/10/09 08:38:07;;;;;;;11.88;5.05;;;;;;;;;;5084200;28;20426;-81
2023/10/09 08:40:37;;;;;;;13.10;5.18;;;;;;;;;;5075862;28;20380;-84
2023/10/09 08:43:21;;;;;;;10.35;4.45;;;;;;;;;;5083013;28;20383;-81
2023/10/09 08:45:53;;;;;;;9.27;4.53;;;;;;;;;;5066950;28;20384;-81
2023/10/09 08:48:21;;;;;;;12.13;4.65;;;;;;;;;;5072283;28;20388;-83
2023/10/09 08:50:49;;;;;;;11.80;4.20;;;;;;;;;;5082029;28;20751;-82
2023/10/09 08:53:16;;;;;;;12.50;4.20;;;;;;;;;;5082797;28;20387;-82
2023/10/09 08:55:42;;;;;;;9.05;4.28;;;;;;;;;;5082838;28;20383;-82
2023/10/09 08:58:24;;;;;;;13.45;4.70;;;;;;;;;;5083229;28;20391;-83
2023/10/09 09:00:51;;;;;;;10.95;4.32;;;;;;;;;;5079145;28;20721;-83
2023/10/09 09:03:18;;;;;;;11.00;4.63;;;;;;;;;;5080403;28;20703;-83
2023/10/09 09:05:52;;;;;;;11.13;4.23;;;;;;;;;;5080651;28;20388;-82
2023/10/09 09:08:25;;;;;;;9.05;4.40;;;;;;;;;;5081898;28;20407;-83
2023/10/09 09:10:53;;;;;;;14.55;4.68;;;;;;;;;;5081678;28;20411;-83
2023/10/09 09:13:19;;;;;;;12.80;4.30;;;;;;;;;;5082298;28;20853;-82
2023/10/09 09:15:47;;;;;;;17.50;4.83;;;;;;;;;;5082807;28;20384;-81
2023/10/09 09:18:17;;;;;;;15.32;4.68;;;;;;;;;;5082353;28;20907;-82
2023/10/09 09:20:47;;;;;;;10.10;4.18;;;;;;;;;;5081967;28;20403;-82
2023/10/09 09:23:13;;;;;;;10.55;4.20;;;;;;;;;;5081737;28;20393;-82
2023/10/09 09:25:44;;;;;;;9.52;3.70;;;;;;;;;;5081728;28;20391;-81
2023/10/09 09:28:12;;;;;;;12.70;4.50;;;;;;;;;;5081565;28;20455;-81
2023/10/09 09:30:40;;;;;;;12.75;4.57;;;;;;;;;;5081329;28;20422;-82
2023/10/09 09:33:42;;;;;;;11.07;4.05;;;;;;;;;;5078315;28;20470;-81
2023/10/09 09:36:11;;;;;;;9.95;4.25;;;;;;;;;;5082530;28;20371;-82
2023/10/09 09:39:01;;;;;;;8.07;4.03;;;;;;;;;;5081540;28;20861;-81
2023/10/09 09:41:27;;;;;;;12.60;4.50;;;;;;;;;;5081723;28;20396;-81
2023/10/09 09:44:05;;;;;;;11.95;4.07;;;;;;;;;;5082078;28;20376;-81
2023/10/09 09:46:34;;;;;;;15.45;4.05;;;;;;;;;;5081993;28;20433;-82
2023/10/09 09:49:01;;;;;;;11.48;4.10;;;;;;;;;;5081350;28;20403;-83
2023/10/09 09:51:30;;;;;;;10.87;4.00;;;;;;;;;;5080526;28;20388;-80
2023/10/09 09:53:57;;;;;;;9.48;4.15;;;;;;;;;;5081095;28;20390;-82
2023/10/09 09:56:25;;;;;;;8.23;4.10;;;;;;;;;;5081436;28;20426;-82
2023/10/09 09:58:56;;;;;;;13.77;4.68;;;;;;;;;;5081446;28;20375;-82
2023/10/09 10:01:41;;;;;;;9.88;4.30;;;;;;;;;;5081035;28;20917;-81
2023/10/09 10:04:20;;;;;;;10.98;4.70;;;;;;;;;;5080711;28;20729;-81
2023/10/09 10:06:47;;;;;;;10.25;4.55;;;;;;;;;;5080972;28;20391;-81
2023/10/09 10:09:38;;;;;;;12.77;4.63;;;;;;;;;;5080665;28;20422;-80
2023/10/09 10:12:09;;;;;;;10.73;4.63;;;;;;;;;;5073232;28;20424;-81
2023/10/09 10:14:52;;;;;;;10.52;4.97;;;;;;;;;;5077475;28;20376;-81
2023/10/09 10:17:20;;;;;;;10.90;5.20;;;;;;;;;;5080506;28;20404;-80
2023/10/09 10:22:47;;;;;;;12.55;4.90;;;;;;;;;;5081777;28;20391;-82
2023/10/09 10:25:41;;;;;;;9.45;4.32;;;;;;;;;;5079325;28;20394;-80
2023/10/09 10:28:16;;;;;;;14.10;4.85;;;;;;;;;;5078810;28;20419;-82
2023/10/09 10:30:51;;;;;;;9.65;4.50;;;;;;;;;;5081416;28;20414;-84
2023/10/09 10:33:17;;;;;;;11.55;4.20;;;;;;;;;;5079410;28;20396;-82
2023/10/09 10:38:25;;;;;;;11.45;4.35;;;;;;;;;;5081622;28;20478;-83
2023/10/09 10:40:57;;;;;;;16.40;4.30;;;;;;;;;;5069820;28;20375;-82
2023/10/09 10:46:24;;;;;;;10.18;3.88;;;;;;;;;;5082110;28;20916;-82
2023/10/09 10:48:59;;;;;;;11.13;4.75;;;;;;;;;;5081022;28;20383;-83
2023/10/09 10:51:37;;;;;;;12.73;4.07;;;;;;;;;;5078778;28;20386;-81
2023/10/09 10:56:51;;;;;;;10.15;3.97;;;;;;;;;;5082606;28;20423;-81
2023/10/09 10:59:22;;;;;;;13.35;4.30;;;;;;;;;;5084035;28;20387;-83
2023/10/09 11:02:14;;;;;;;10.10;4.30;;;;;;;;;;5084277;28;20897;-83
2023/10/09 11:04:42;;;;;;;11.40;4.25;;;;;;;;;;5082316;28;20476;-81
2023/10/09 11:07:24;;;;;;;11.13;4.38;;;;;;;;;;5084879;28;20375;-82
2023/10/09 11:12:37;;;;;;;8.85;3.90;;;;;;;;;;5082519;28;20473;-81
2023/10/09 11:15:37;;;;;;;17.47;4.43;;;;;;;;;;5083587;28;20555;-81
2023/10/09 11:18:07;;;;;;;12.57;3.83;;;;;;;;;;5081812;28;20395;-79
2023/10/09 11:20:37;;;;;;;11.60;4.07;;;;;;;;;;5082682;28;20449;-82
2023/10/09 11:25:49;;;;;;;12.35;4.10;;;;;;;;;;5082609;28;20380;-80
2023/10/09 11:28:29;;;;;;;9.82;3.97;;;;;;;;;;5085768;28;20384;-80
2023/10/09 11:30:56;;;;;;;10.35;4.07;;;;;;;;;;5087088;28;20416;-81
2023/10/09 11:33:25;;;;;;;11.18;4.15;;;;;;;;;;5085755;28;20702;-79
2023/10/09 11:35:57;;;;;;;14.00;4.47;;;;;;;;;;5077496;28;20381;-82
2023/10/09 11:38:25;;;;;;;14.15;4.63;;;;;;;;;;5078841;28;20378;-81
2023/10/09 11:43:50;;;;;;;12.05;4.50;;;;;;;;;;5079730;28;20384;-81
2023/10/09 11:46:36;;;;;;;10.43;3.90;;;;;;;;;;5085986;28;20384;-81
2023/10/09 11:54:33;;;;;;;12.77;4.03;;;;;;;;;;5085994;28;20418;-81
2023/10/09 11:57:00;;;;;;;12.05;4.05;;;;;;;;;;5085713;28;20384;-81
2023/10/09 11:59:27;;;;;;;8.98;3.88;;;;;;;;;;5083549;28;20383;-81
2023/10/09 12:01:54;;;;;;;10.63;4.03;;;;;;;;;;5084125;28;20387;-80
2023/10/09 12:04:29;;;;;;;12.23;4.30;;;;;;;;;;5084274;28;20387;-81
2023/10/09 12:07:06;;;;;;;10.07;4.03;;;;;;;;;;5078782;28;20376;-81
2023/10/09 12:09:34;;;;;;;11.85;3.90;;;;;;;;;;5083856;28;20403;-80
2023/10/09 12:12:00;;;;;;;12.07;4.22;;;;;;;;;;5084504;28;20391;-81
2023/10/09 12:14:33;;;;;;;14.07;4.27;;;;;;;;;;5083575;28;20829;-82
2023/10/09 12:16:59;;;;;;;11.05;4.40;;;;;;;;;;5076356;28;20384;-82
2023/10/09 12:19:25;;;;;;;14.03;3.93;;;;;;;;;;5076065;28;20435;-80
2023/10/09 12:21:53;;;;;;;9.70;3.90;;;;;;;;;;5083827;28;20384;-80
2023/10/09 12:24:19;;;;;;;10.57;4.00;;;;;;;;;;5085005;28;20380;-82
2023/10/09 12:26:45;;;;;;;8.90;3.90;;;;;;;;;;5083965;28;20390;-79
2023/10/09 12:29:12;;;;;;;10.77;4.10;;;;;;;;;;5082445;28;20818;-82
2023/10/09 12:31:38;;;;;;;13.40;5.03;;;;;;;;;;5085326;28;20390;-80
2023/10/09 12:34:05;;;;;;;12.60;5.93;;;;;;;;;;5084846;28;20440;-82
2023/10/09 12:36:37;;;;;;;9.40;4.43;;;;;;;;;;5074499;28;20381;-81
2023/10/09 12:39:03;;;;;;;10.23;4.00;;;;;;;;;;5069463;28;20376;-82
2023/10/09 12:41:33;;;;;;;13.05;4.47;;;;;;;;;;5083785;28;20395;-81
2023/10/09 12:43:59;;;;;;;8.15;4.20;;;;;;;;;;5073551;28;20372;-81
2023/10/09 12:46:25;;;;;;;13.27;4.23;;;;;;;;;;5082269;28;20372;-79
2023/10/09 12:48:55;;;;;;;13.23;4.32;;;;;;;;;;5069004;28;20376;-80
2023/10/09 12:51:25;;;;;;;13.85;4.40;;;;;;;;;;5075772;28;20501;-81
2023/10/09 12:53:56;;;;;;;10.50;4.22;;;;;;;;;;5080064;28;20408;-81
2023/10/09 12:56:32;;;;;;;12.98;4.20;;;;;;;;;;5083929;28;20454;-80
2023/10/09 12:59:00;;;;;;;8.90;3.97;;;;;;;;;;5084146;28;20384;-81
2023/10/09 13:01:31;;;;;;;9.90;4.30;;;;;;;;;;5083385;28;20837;-81
2023/10/09 13:03:59;;;;;;;11.27;4.72;;;;;;;;;;5083633;28;20371;-81
2023/10/09 13:06:25;;;;;;;9.75;4.55;;;;;;;;;;5083984;28;20380;-81
2023/10/09 13:08:51;;;;;;;11.35;4.38;;;;;;;;;;5082196;28;20371;-80
2023/10/09 13:11:18;;;;;;;10.53;4.23;;;;;;;;;;5082294;28;20439;-81
2023/10/09 13:13:47;;;;;;;14.23;4.90;;;;;;;;;;5082697;28;20380;-81
2023/10/09 13:16:23;;;;;;;10.02;4.20;;;;;;;;;;5083589;28;20444;-80
2023/10/09 13:18:56;;;;;;;10.57;4.67;;;;;;;;;;5084220;28;20376;-81
2023/10/09 13:21:32;;;;;;;12.38;4.43;;;;;;;;;;5083648;28;20399;-81
2023/10/09 13:24:00;;;;;;;16.80;4.97;;;;;;;;;;5084280;28;20430;-80
2023/10/09 13:26:34;;;;;;;10.82;5.32;;;;;;;;;;5083771;28;20376;-81
2023/10/09 13:29:01;;;;;;;14.40;5.50;;;;;;;;;;5083599;28;20406;-81
2023/10/09 13:31:27;;;;;;;14.20;6.00;;;;;;;;;;5082921;28;20422;-81
2023/10/09 13:33:54;;;;;;;15.63;6.13;;;;;;;;;;5082848;28;20376;-80
2023/10/09 13:37:11;;;;;;;13.30;5.90;;;;;;;;;;5083881;28;20459;-81
2023/10/09 13:39:26;;;;;;;14.70;5.70;;;;;;;;;;5068732;28;20386;-81
2023/10/09 13:41:59;;;;;;;10.85;5.38;;;;;;;;;;5079801;28;20383;-81
2023/10/09 13:44:32;;;;;;;12.98;5.38;;;;;;;;;;5081364;28;20379;-81
2023/10/09 13:46:59;;;;;;;15.77;5.20;;;;;;;;;;5083195;28;20907;-82
2023/10/09 13:49:31;;;;;;;13.43;5.30;;;;;;;;;;5069732;28;20475;-81
2023/10/09 13:52:02;;;;;;;13.27;4.97;;;;;;;;;;5079015;28;20384;-81
2023/10/09 13:54:39;;;;;;;11.88;5.10;;;;;;;;;;5080591;28;20384;-81
2023/10/09 13:57:06;;;;;;;13.50;4.82;;;;;;;;;;5076195;28;20388;-81
2023/10/09 13:59:32;;;;;;;14.02;4.53;;;;;;;;;;5081353;28;20388;-81
2023/10/09 14:01:59;;;;;;;13.55;4.90;;;;;;;;;;5080184;28;20449;-81
2023/10/09 14:04:28;;;;;;;14.35;4.80;;;;;;;;;;5067533;28;20394;-81
2023/10/09 14:06:58;;;;;;;13.23;4.93;;;;;;;;;;5062126;28;20381;-82
2023/10/09 14:09:45;;;;;;;14.10;4.50;;;;;;;;;;5066376;28;20672;-83
2023/10/09 14:12:14;;;;;;;13.02;4.40;;;;;;;;;;5074832;28;20380;-82
2023/10/09 14:14:49;;;;;;;10.82;4.45;;;;;;;;;;5080621;28;20429;-81
2023/10/09 14:17:18;;;;;;;13.20;4.60;;;;;;;;;;5073664;28;20405;-80
2023/10/09 14:19:47;;;;;;;11.52;4.75;;;;;;;;;;5081864;28;20568;-83
2023/10/09 14:22:15;;;;;;;13.90;4.45;;;;;;;;;;5081807;28;20403;-81
2023/10/09 14:24:45;;;;;;;13.80;4.88;;;;;;;;;;5081725;28;20372;-81
2023/10/09 14:27:17;;;;;;;17.02;4.53;;;;;;;;;;5076746;28;20374;-81
2023/10/09 14:29:44;;;;;;;17.08;4.90;;;;;;;;;;5080837;28;20426;-81
2023/10/09 14:32:13;;;;;;;11.53;4.37;;;;;;;;;;5082382;28;20427;-81
2023/10/09 14:34:42;;;;;;;13.93;4.95;;;;;;;;;;5081469;28;20411;-82
2023/10/09 14:37:11;;;;;;;10.82;4.53;;;;;;;;;;5081666;28;20376;-82
2023/10/09 14:39:41;;;;;;;8.15;4.05;;;;;;;;;;5081890;28;20384;-81
2023/10/09 14:42:10;;;;;;;11.27;4.15;;;;;;;;;;5080908;28;20384;-82
2023/10/09 14:44:40;;;;;;;15.07;4.85;;;;;;;;;;5080592;28;20376;-83
2023/10/09 14:47:06;;;;;;;10.85;3.88;;;;;;;;;;5081394;28;20384;-81
2023/10/09 14:49:43;;;;;;;15.35;4.65;;;;;;;;;;5080907;28;20510;-81
2023/10/09 14:52:10;;;;;;;16.02;5.28;;;;;;;;;;5080986;28;20390;-82
2023/10/09 14:54:39;;;;;;;16.30;4.80;;;;;;;;;;5079628;28;20392;-80
2023/10/09 14:57:05;;;;;;;21.23;5.18;;;;;;;;;;5062556;28;20391;-81
2023/10/09 14:59:34;;;;;;;14.13;4.60;;;;;;;;;;5080941;28;20478;-81
2023/10/09 15:02:01;;;;;;;20.92;5.38;;;;;;;;;;5068246;28;20414;-82
2023/10/09 15:04:27;;;;;;;16.20;4.68;;;;;;;;;;5082576;28;20402;-81
2023/10/09 15:06:53;;;;;;;13.43;4.40;;;;;;;;;;5084333;28;20854;-80
2023/10/09 15:09:22;;;;;;;21.35;5.38;;;;;;;;;;5084486;28;20484;-79
2023/10/09 15:11:52;;;;;;;14.38;4.50;;;;;;;;;;5083193;28;20387;-81
2023/10/09 15:14:18;;;;;;;23.35;5.40;;;;;;;;;;5074041;28;20480;-80
2023/10/09 15:16:45;;;;;;;14.48;4.63;;;;;;;;;;5079172;28;20372;-83
2023/10/09 15:19:11;;;;;;;13.75;4.45;;;;;;;;;;5083491;28;20408;-80
2023/10/09 15:21:43;;;;;;;12.17;4.37;;;;;;;;;;5083463;28;20384;-81
2023/10/09 15:24:15;;;;;;;14.85;4.55;;;;;;;;;;5081968;28;20470;-81
2023/10/09 15:26:41;;;;;;;13.05;4.80;;;;;;;;;;5082743;28;20398;-81
2023/10/09 15:29:09;;;;;;;10.75;4.20;;;;;;;;;;5082056;28;20411;-81
2023/10/09 15:31:35;;;;;;;14.60;4.70;;;;;;;;;;5082406;28;20399;-81
2023/10/09 15:34:02;;;;;;;11.85;4.15;;;;;;;;;;5082180;28;20384;-81
2023/10/09 15:36:32;;;;;;;10.20;3.97;;;;;;;;;;5063901;28;20379;-81
2023/10/09 15:38:59;;;;;;;11.60;4.40;;;;;;;;;;5081429;28;20376;-79
2023/10/09 15:41:29;;;;;;;13.80;4.60;;;;;;;;;;5079324;28;21270;-79
2023/10/09 15:43:56;;;;;;;13.02;4.32;;;;;;;;;;5066870;28;20882;-79
2023/10/09 15:46:22;;;;;;;19.42;5.53;;;;;;;;;;5082285;28;20445;-79
2023/10/09 15:48:51;;;;;;;10.68;4.00;;;;;;;;;;5081039;28;20864;-79
2023/10/09 15:51:18;;;;;;;13.32;5.07;;;;;;;;;;5082521;28;20395;-78
2023/10/09 15:53:45;;;;;;;14.02;4.28;;;;;;;;;;5073901;28;20385;-79
2023/10/09 15:56:17;;;;;;;13.45;4.53;;;;;;;;;;5075650;28;20415;-78
2023/10/09 15:58:44;;;;;;;12.27;4.78;;;;;;;;;;5082462;28;20372;-79
2023/10/09 16:01:14;;;;;;;15.48;5.57;;;;;;;;;;5083033;28;20380;-79
2023/10/09 16:03:41;;;;;;;15.73;5.10;;;;;;;;;;5081344;28;20798;-79
2023/10/09 16:06:11;;;;;;;20.98;6.30;;;;;;;;;;5063540;28;20380;-79
2023/10/09 16:08:38;;;;;;;13.43;4.53;;;;;;;;;;5075752;28;20476;-79
2023/10/09 16:11:04;;;;;;;15.80;4.93;;;;;;;;;;5082103;28;20423;-79
2023/10/09 16:13:30;;;;;;;10.15;4.80;;;;;;;;;;5068836;28;20392;-79
2023/10/09 16:15:59;;;;;;;11.07;5.10;;;;;;;;;;5078075;28;20395;-80
2023/10/09 16:18:27;;;;;;;12.47;4.87;;;;;;;;;;5079657;28;20437;-80
2023/10/09 16:20:54;;;;;;;15.17;5.73;;;;;;;;;;5079111;28;20391;-79
2023/10/09 16:23:20;;;;;;;11.13;5.20;;;;;;;;;;5079064;28;20982;-80
2023/10/09 16:25:46;;;;;;;12.82;5.05;;;;;;;;;;5079048;28;20408;-80
2023/10/09 16:28:15;;;;;;;10.50;5.00;;;;;;;;;;5077624;28;20383;-80
2023/10/09 16:30:42;;;;;;;13.02;5.18;;;;;;;;;;5079252;28;20823;-80
2023/10/09 16:33:08;;;;;;;13.60;5.10;;;;;;;;;;5079520;28;20379;-80
2023/10/09 16:35:37;;;;;;;10.93;4.70;;;;;;;;;;5081180;28;20379;-80
2023/10/09 16:38:11;;;;;;;10.35;4.55;;;;;;;;;;5079741;28;20388;-80
2023/10/09 16:40:37;;;;;;;9.60;4.82;;;;;;;;;;5080548;28;20437;-80
2023/10/09 16:43:05;;;;;;;12.18;5.15;;;;;;;;;;5080602;28;20390;-80
2023/10/09 16:45:35;;;;;;;13.32;5.45;;;;;;;;;;5080334;28;20372;-80
2023/10/09 16:48:05;;;;;;;11.68;4.95;;;;;;;;;;5063379;28;20376;-80
2023/10/09 16:50:31;;;;;;;8.98;4.80;;;;;;;;;;5077448;28;20407;-80
2023/10/09 16:52:57;;;;;;;9.95;5.10;;;;;;;;;;5074990;28;20981;-80
2023/10/09 16:55:27;;;;;;;11.73;4.60;;;;;;;;;;5080048;28;20833;-80
2023/10/09 16:57:55;;;;;;;14.68;5.93;;;;;;;;;;5079519;28;20380;-80
2023/10/09 17:00:34;;;;;;;9.80;5.07;;;;;;;;;;5049430;28;20402;-80
2023/10/09 17:03:11;;;;;;;11.85;5.00;;;;;;;;;;5061522;28;20387;-80
2023/10/09 17:05:55;;;;;;;10.60;5.93;;;;;;;;;;5062362;28;20392;-80
2023/10/09 17:08:20;;;;;;;10.60;5.38;;;;;;;;;;5083711;28;20702;-79
2023/10/09 17:10:50;;;;;;;8.57;5.10;;;;;;;;;;5083397;28;20423;-79
2023/10/09 17:13:20;;;;;;;8.30;4.50;;;;;;;;;;5082622;28;20383;-79
2023/10/09 17:15:49;;;;;;;9.05;4.90;;;;;;;;;;5065951;28;20395;-79
2023/10/09 17:18:15;;;;;;;8.80;5.40;;;;;;;;;;5066845;28;20422;-79
2023/10/09 17:20:48;;;;;;;12.55;5.03;;;;;;;;;;5083748;28;20410;-79
2023/10/09 17:23:15;;;;;;;10.55;4.85;;;;;;;;;;5084049;28;20419;-79
2023/10/09 17:25:44;;;;;;;11.43;6.10;;;;;;;;;;5073549;28;20430;-79
2023/10/09 17:28:14;;;;;;;10.73;5.22;;;;;;;;;;5083908;28;20411;-79
2023/10/09 17:30:45;;;;;;;12.00;5.15;;;;;;;;;;5074886;28;20415;-79
2023/10/09 17:33:11;;;;;;;11.95;4.97;;;;;;;;;;5071156;28;20883;-79
2023/10/09 17:35:39;;;;;;;11.50;5.40;;;;;;;;;;5071607;28;20464;-78